createdAt,value
2019-03-23T00:02:43.637Z,1006.91
2019-03-23T00:12:43.736Z,1006.98
2019-03-23T00:22:43.624Z,1006.96
2019-03-23T00:32:44.445Z,1007.07
2019-03-23T00:42:43.519Z,1007.17
2019-03-23T00:52:43.666Z,1007.26
2019-03-23T01:02:43.535Z,1007.25
2019-03-23T01:12:43.560Z,1007.26
2019-03-23T01:22:43.544Z,1007.41
2019-03-23T01:32:43.517Z,1007.41
2019-03-23T01:42:43.580Z,1007.43
2019-03-23T01:52:43.573Z,1007.44
2019-03-23T02:02:43.524Z,1007.55
2019-03-23T02:12:43.589Z,1007.64
2019-03-23T02:22:43.534Z,1007.67
2019-03-23T02:32:43.585Z,1007.87
2019-03-23T02:42:43.556Z,1007.79
2019-03-23T02:52:43.546Z,1007.85
2019-03-23T03:02:43.477Z,1007.90
2019-03-23T03:12:43.571Z,1008.00
2019-03-23T03:22:43.611Z,1008.09
2019-03-23T03:32:43.508Z,1007.99
2019-03-23T03:42:43.613Z,1007.98
2019-03-23T03:52:43.496Z,1008.02
2019-03-23T04:02:43.460Z,1008.11
2019-03-23T04:12:43.486Z,1008.34
2019-03-23T04:22:46.365Z,1008.32
2019-03-23T04:32:43.481Z,1008.44
2019-03-23T04:42:43.515Z,1008.37
2019-03-23T04:52:43.564Z,1008.45
2019-03-23T05:02:43.565Z,1008.36
2019-03-23T05:12:43.484Z,1008.54
2019-03-23T05:22:43.506Z,1008.62
2019-03-23T05:32:43.557Z,1008.76
2019-03-23T05:42:43.535Z,1008.73
2019-03-23T05:52:43.475Z,1008.75
2019-03-23T06:02:43.491Z,1008.77
2019-03-23T06:12:43.475Z,1008.74
2019-03-23T06:22:43.568Z,1008.81
2019-03-23T06:32:43.577Z,1009.01
2019-03-23T06:42:44.652Z,1009.15
2019-03-23T06:52:43.549Z,1009.10
2019-03-23T07:02:43.522Z,1009.12
2019-03-23T07:12:43.643Z,1009.37
2019-03-23T07:22:43.476Z,1009.33
2019-03-23T07:32:43.498Z,1009.35
2019-03-23T07:42:44.194Z,1009.45
2019-03-23T07:52:43.513Z,1009.54
2019-03-23T08:02:43.506Z,1009.53
2019-03-23T08:12:44.288Z,1009.57
2019-03-23T08:22:43.539Z,1009.71
2019-03-23T08:32:43.553Z,1009.83
2019-03-23T08:42:43.534Z,1009.87
2019-03-23T08:52:43.522Z,1009.77
2019-03-23T09:02:43.520Z,1009.63
2019-03-23T09:12:43.492Z,1009.65
2019-03-23T09:22:43.569Z,1009.69
2019-03-23T09:32:44.493Z,1009.76
2019-03-23T09:42:43.478Z,1009.82
2019-03-23T09:52:43.566Z,1009.90
2019-03-23T10:02:43.713Z,1009.79
2019-03-23T10:12:43.634Z,1009.80
2019-03-23T10:22:43.531Z,1009.82
2019-03-23T10:32:50.879Z,1009.82
2019-03-23T10:42:43.579Z,1009.81
2019-03-23T10:52:43.490Z,1009.69
2019-03-23T11:02:43.474Z,1009.81
2019-03-23T11:12:43.588Z,1009.74
2019-03-23T11:22:43.493Z,1009.85
2019-03-23T11:32:43.522Z,1009.80
2019-03-23T11:42:49.968Z,1009.84
2019-03-23T11:52:43.517Z,1009.91
2019-03-23T12:02:43.537Z,1009.94
2019-03-23T12:12:43.537Z,1009.93
2019-03-23T12:22:43.509Z,1009.90
2019-03-23T12:32:44.255Z,1009.99
2019-03-23T12:42:43.566Z,1010.00
2019-03-23T12:52:43.494Z,1010.03
2019-03-23T13:02:43.393Z,1010.04
2019-03-23T13:12:44.191Z,1010.07
2019-03-23T13:22:43.543Z,1010.02
2019-03-23T13:32:43.744Z,1010.04
2019-03-23T13:42:43.485Z,1010.05
2019-03-23T13:52:43.992Z,1010.07
2019-03-23T14:02:43.509Z,1010.00
2019-03-23T14:12:43.602Z,1009.88
2019-03-23T14:22:43.538Z,1009.72
2019-03-23T14:32:43.544Z,1009.78
2019-03-23T14:42:43.567Z,1009.75
2019-03-23T14:52:43.527Z,1009.70
2019-03-23T15:02:43.581Z,1009.76
2019-03-23T15:12:43.579Z,1009.72
2019-03-23T15:22:43.527Z,1009.75
2019-03-23T15:32:44.411Z,1009.62
2019-03-23T15:42:43.568Z,1009.65
2019-03-23T15:52:43.471Z,1009.60
2019-03-23T16:02:43.647Z,1009.54
2019-03-23T16:12:43.562Z,1009.56
2019-03-23T16:22:43.548Z,1009.53
2019-03-23T16:32:43.473Z,1009.57
2019-03-23T16:42:45.677Z,1009.54
2019-03-23T16:52:43.516Z,1009.57
2019-03-23T17:02:43.475Z,1009.67
2019-03-23T17:12:43.503Z,1009.62
2019-03-23T17:22:43.768Z,1009.53
2019-03-23T17:32:43.588Z,1009.56
2019-03-23T17:42:43.525Z,1009.60
2019-03-23T17:52:43.561Z,1009.71
2019-03-23T18:02:43.550Z,1009.76
2019-03-23T18:12:43.554Z,1009.79
2019-03-23T18:22:43.531Z,1009.81
2019-03-23T18:32:43.463Z,1009.87
2019-03-23T18:42:43.571Z,1009.82
2019-03-23T18:52:43.549Z,1009.69
2019-03-23T19:02:43.579Z,1009.75
2019-03-23T19:12:43.546Z,1009.76
2019-03-23T19:22:43.397Z,1009.75
2019-03-23T19:32:43.586Z,1009.90
2019-03-23T19:42:43.556Z,1009.92
2019-03-23T19:52:43.474Z,1009.88
2019-03-23T20:02:43.513Z,1009.84
2019-03-23T20:12:43.498Z,1009.84
2019-03-23T20:22:43.501Z,1009.85
2019-03-23T20:32:43.626Z,1009.85
2019-03-23T20:42:43.959Z,1009.78
2019-03-23T20:52:43.591Z,1009.68
2019-03-23T21:02:43.504Z,1009.67
2019-03-23T21:12:43.616Z,1009.61
2019-03-23T21:22:43.529Z,1009.50
2019-03-23T21:32:43.546Z,1009.43
2019-03-23T21:42:43.481Z,1009.32
2019-03-23T21:52:43.536Z,1009.19
2019-03-23T22:02:43.668Z,1009.08
2019-03-23T22:12:43.519Z,1009.02
2019-03-23T22:22:43.618Z,1009.05
2019-03-23T22:32:43.514Z,1008.95
2019-03-23T22:42:43.572Z,1008.94
2019-03-23T22:52:43.574Z,1008.92
2019-03-23T23:02:43.533Z,1008.90
2019-03-23T23:12:43.564Z,1008.84
2019-03-23T23:22:43.529Z,1008.70
2019-03-23T23:32:43.543Z,1008.63
2019-03-23T23:42:43.750Z,1008.61
2019-03-23T23:52:43.590Z,1008.42
